地図

経路データ

SID SEASON NUMBER BASIN SUBBASIN NAME ISO_TIME NATURE LAT LON WMO_WIND WMO_PRES WMO_AGENCY TRACK_TYPE DIST2LAND LANDFALL IFLAG USA_AGENCY USA_ATCF_ID USA_LAT USA_LON USA_RECORD USA_STATUS USA_WIND USA_PRES USA_SSHS USA_R34_NE USA_R34_SE USA_R34_SW USA_R34_NW USA_R50_NE USA_R50_SE USA_R50_SW USA_R50_NW USA_R64_NE USA_R64_SE USA_R64_SW USA_R64_NW USA_POCI USA_ROCI USA_RMW USA_EYE TOKYO_LAT TOKYO_LON TOKYO_GRADE TOKYO_WIND TOKYO_PRES TOKYO_R50_DIR TOKYO_R50_LONG TOKYO_R50_SHORT TOKYO_R30_DIR TOKYO_R30_LONG TOKYO_R30_SHORT TOKYO_LAND CMA_LAT CMA_LON CMA_CAT CMA_WIND CMA_PRES HKO_LAT HKO_LON HKO_CAT HKO_WIND HKO_PRES NEWDELHI_LAT NEWDELHI_LON NEWDELHI_GRADE NEWDELHI_WIND NEWDELHI_PRES NEWDELHI_CI NEWDELHI_DP NEWDELHI_POCI REUNION_LAT REUNION_LON REUNION_TYPE REUNION_WIND REUNION_PRES REUNION_TNUM REUNION_CI REUNION_RMW REUNION_R34_NE REUNION_R34_SE REUNION_R34_SW REUNION_R34_NW REUNION_R50_NE REUNION_R50_SE REUNION_R50_SW REUNION_R50_NW REUNION_R64_NE REUNION_R64_SE REUNION_R64_SW REUNION_R64_NW BOM_LAT BOM_LON BOM_TYPE BOM_WIND BOM_PRES BOM_TNUM BOM_CI BOM_RMW BOM_R34_NE BOM_R34_SE BOM_R34_SW BOM_R34_NW BOM_R50_NE BOM_R50_SE BOM_R50_SW BOM_R50_NW BOM_R64_NE BOM_R64_SE BOM_R64_SW BOM_R64_NW BOM_ROCI BOM_POCI BOM_EYE BOM_POS_METHOD BOM_PRES_METHOD NADI_LAT NADI_LON NADI_CAT NADI_WIND NADI_PRES WELLINGTON_LAT WELLINGTON_LON WELLINGTON_WIND WELLINGTON_PRES DS824_LAT DS824_LON DS824_STAGE DS824_WIND DS824_PRES TD9636_LAT TD9636_LON TD9636_STAGE TD9636_WIND TD9636_PRES TD9635_LAT TD9635_LON TD9635_WIND TD9635_PRES TD9635_ROCI NEUMANN_LAT NEUMANN_LON NEUMANN_CLASS NEUMANN_WIND NEUMANN_PRES MLC_LAT MLC_LON MLC_CLASS MLC_WIND MLC_PRES USA_GUST BOM_GUST BOM_GUST_PER REUNION_GUST REUNION_GUST_PER USA_SEAHGT USA_SEARAD_NE USA_SEARAD_SE USA_SEARAD_SW USA_SEARAD_NW STORM_SPEED STORM_DIR
2011091N09112 2011 19 WP MM NOT_NAMED 2011-04-01 00:00:00 NR 8.90000 111.800 main 415 415 O_____________ jtwc_wp WP012011 8.90000 111.800 DB 15 1010 -3 3 195
2011091N09112 2011 19 WP MM NOT_NAMED 2011-04-01 03:00:00 NR 8.76750 111.755 main 422 415 P_____________ WP012011 8.76750 111.755 DB 17 1008 -3 2 207
2011091N09112 2011 19 WP MM NOT_NAMED 2011-04-01 06:00:00 NR 8.70000 111.700 main 423 415 O_____________ jtwc_wp WP012011 8.70000 111.700 DB 20 1007 -3 1 255
2011091N09112 2011 19 WP MM NOT_NAMED 2011-04-01 09:00:00 NR 8.73500 111.635 main 415 407 P_____________ WP012011 8.73500 111.635 DB 20 1007 -3 1 317
2011091N09112 2011 19 WP MM NOT_NAMED 2011-04-01 12:00:00 NR 8.80000 111.600 main 407 407 O_____________ jtwc_wp WP012011 8.80000 111.600 DB 20 1007 -3 1 0
2011091N09112 2011 19 WP MM NOT_NAMED 2011-04-01 15:00:00 NR 8.79250 111.657 main 415 407 P_____________ WP012011 8.79250 111.657 DB 20 1006 -3 0 120
2011091N09112 2011 19 WP MM NOT_NAMED 2011-04-01 18:00:00 TS 8.78000 111.640 main 407 391 O_O___________ jtwc_wp WP012011 8.80000 111.700 DB 20 1005 -3 1008 150 45 8.70000 111.400 0 19 1006 1 296
2011091N09112 2011 19 WP MM NOT_NAMED 2011-04-01 21:00:00 TS 8.85667 111.528 main 391 375 P_P___________ WP012011 8.87751 111.615 DB 22 1004 -3 1008 150 45 8.81500 111.353 0 22 1005 3 308
2011091N09112 2011 19 WP MM NOT_NAMED 2011-04-02 00:00:00 TS 8.95714 111.414 main 375 368 O_O___________ jtwc_wp WP012011 9.00000 111.500 TD 25 1004 -1 1008 150 45 8.90000 111.300 1 25 1004 3 314
2011091N09112 2011 19 WP MM NOT_NAMED 2011-04-02 03:00:00 TS 9.04625 111.331 main 368 360 P_P___________ WP012011 9.14999 111.420 TD 25 1004 -1 1008 150 42 8.94250 111.243 1 25 1004 2 330
2011091N09112 2011 19 WP MM NOT_NAMED 2011-04-02 06:00:00 TS 9.15000 111.300 main 352 344 O_O___________ jtwc_wp WP012011 9.30000 111.400 TD 25 1004 -1 1008 150 40 9.00000 111.200 1 25 1004 2 354
2011091N09112 2011 19 WP MM NOT_NAMED 2011-04-02 09:00:00 TS 9.28249 111.320 main 344 344 P_P___________ WP012011 9.42251 111.477 TD 27 1002 -1 1008 145 35 9.14248 111.163 1 25 1004 3 21
2011091N09112 2011 19 WP MM NOT_NAMED 2011-04-02 12:00:00 TS 9.40000 111.400 main 345 345 O_O___________ jtwc_wp WP012011 9.50000 111.600 TD 30 1000 -1 1008 140 30 9.30000 111.200 1 25 1004 3 49
2011091N09112 2011 19 WP MM NOT_NAMED 2011-04-02 15:00:00 TS 9.48377 111.550 main 355 346 P_P___________ WP012011 9.53000 111.715 TD 30 1000 -1 1007 145 37 9.43754 111.385 1 27 1002 3 71
2011091N09112 2011 19 WP MM NOT_NAMED 2011-04-02 18:00:00 TS 9.50000 111.700 main 364 364 O_O___________ jtwc_wp WP012011 9.50000 111.800 TD 30 1000 -1 1006 150 45 9.50000 111.600 1 29 1000 2 105
2011091N09112 2011 19 WP MM NOT_NAMED 2011-04-02 21:00:00 TS 9.42624 111.773 main 379 379 P_P___________ WP012011 9.42249 111.807 TD 27 1002 -1 1006 150 45 9.42999 111.738 1 29 1000 2 153
2011091N09112 2011 19 WP MM NOT_NAMED 2011-04-03 00:00:00 TS 9.30000 111.800 main 386 386 O_O___________ jtwc_wp WP012011 9.30000 111.800 TD 25 1004 -1 1006 150 45 9.30000 111.800 1 29 1000 3 172
2011091N09112 2011 19 WP MM NOT_NAMED 2011-04-03 03:00:00 TS 9.17875 111.808 main 393 393 P_P___________ WP012011 9.15000 111.835 TD 22 1005 -1 1006 150 45 9.20749 111.780 1 27 1002 3 0
2011091N09112 2011 19 WP MM NOT_NAMED 2011-04-03 06:00:00 TS 9.04286 111.814 main 407 407 O_O___________ jtwc_wp WP012011 9.00000 111.900 DB 20 1007 -3 1006 150 45 9.10000 111.700 1 25 1004 3 172
2011091N09112 2011 19 WP MM NOT_NAMED 2011-04-03 09:00:00 TS 8.90999 111.853 main 423 423 P_P___________ WP012011 8.88499 111.978 DB 20 1007 -3 1007 135 37 8.96001 111.602 1 22 1005 3 151
2011091N09112 2011 19 WP MM NOT_NAMED 2011-04-03 12:00:00 TS 8.80000 111.950 main 439 439 O_O___________ jtwc_wp WP012011 8.80000 112.100 DB 20 1007 -3 1008 120 30 8.80000 111.500 0 19 1006 5 112
2011091N09112 2011 19 WP MM NOT_NAMED 2011-04-03 15:00:00 NR 8.74254 112.283 main 471 471 P_____________ WP012011 8.74254 112.283 DB 17 1008 -3 0 6 100
2011091N09112 2011 19 WP MM NOT_NAMED 2011-04-03 18:00:00 NR 8.70000 112.500 main 488 O_____________ jtwc_wp WP012011 8.70000 112.500 DB 15 1010 -3 4 101

デジタル台風データ・検索

IBTrACS Databaseについて

本データベースは、米国NOAAが公開する1842年以降の世界の熱帯低気圧のベストトラックデータアーカイブInternational Best Track Archive for Climate Stewardship (IBTrACS)を、ウェブで閲覧しやすい形式に変換したものです。

最終更新日:2021-10-08